Time;durP1;ratioP1;P1;durP2;ratioP2;P2;SDS_P1;SDS_P2;PMS_P1;PMS_P2;Temp;Humidity;BMP_temperature;BMP_pressure;BME280_temperature;BME280_humidity;BME280_pressure;Samples;Min_cycle;Max_cycle;Signal;HPM_P1;HPM_P2
2024/01/18 00:01:31;;;;;;;2.35;0.82;;;10.60;99.90;;;;;;5077449;28;20172;-87
2024/01/18 00:03:58;;;;;;;0.52;0.50;;;10.60;99.90;;;;;;5080622;28;20838;-86
2024/01/18 00:06:24;;;;;;;0.63;0.57;;;;;;;;;;5083529;28;20715;-88
2024/01/18 00:08:50;;;;;;;0.70;0.53;;;;;;;;;;5080137;28;20199;-88
2024/01/18 00:11:19;;;;;;;2.53;0.50;;;;;;;;;;5078476;28;20459;-85
2024/01/18 00:13:45;;;;;;;0.60;0.60;;;;;;;;;;5076496;28;20399;-88
2024/01/18 00:16:11;;;;;;;2.45;0.95;;;;;;;;;;5077784;28;20206;-88
2024/01/18 00:18:37;;;;;;;0.50;0.40;;;;;;;;;;5075288;28;20206;-85
2024/01/18 00:21:04;;;;;;;1.30;0.80;;;10.30;99.90;;;;;;5081996;28;20172;-89
2024/01/18 00:23:31;;;;;;;1.42;0.63;;;10.30;99.90;;;;;;5077999;28;20439;-85
2024/01/18 00:25:57;;;;;;;1.80;0.60;;;;;;;;;;5082611;28;20663;-86
2024/01/18 00:28:23;;;;;;;9.15;0.85;;;;;;;;;;5087485;28;20210;-85
2024/01/18 00:30:48;;;;;;;1.10;0.60;;;;;;;;;;5079284;28;20173;-86
2024/01/18 00:33:14;;;;;;;1.83;1.10;;;;;;;;;;5081368;28;20434;-87
2024/01/18 00:35:40;;;;;;;5.30;0.73;;;;;;;;;;5076294;28;20395;-88
2024/01/18 00:38:06;;;;;;;0.70;0.50;;;;;;;;;;5077175;28;20403;-87
2024/01/18 00:40:32;;;;;;;1.37;0.80;;;;;;;;;;5078219;28;20421;-85
2024/01/18 00:42:58;;;;;;;3.13;1.00;;;;;;;;;;5080243;28;20441;-88
2024/01/18 00:45:24;;;;;;;1.13;0.77;;;;;;;;;;5082340;28;20718;-86
2024/01/18 00:47:50;;;;;;;1.30;1.00;;;;;;;;;;5095587;28;20553;-88
2024/01/18 00:50:16;;;;;;;5.43;2.40;;;;;;;;;;5093722;28;20414;-86
2024/01/18 00:52:42;;;;;;;3.67;2.47;;;;;;;;;;5076154;28;20418;-87
2024/01/18 00:55:09;;;;;;;7.63;3.47;;;;;;;;;;5095373;28;20167;-88
2024/01/18 00:57:35;;;;;;;8.13;4.07;;;8.90;99.90;;;;;;5077607;28;20979;-88
2024/01/18 01:00:02;;;;;;;4.70;3.17;;;;;;;;;;5077161;28;20181;-89
2024/01/18 01:02:28;;;;;;;4.68;3.17;;;;;;;;;;5076624;28;20169;-89
2024/01/18 01:04:54;;;;;;;5.67;3.40;;;;;;;;;;5072223;28;20236;-88
2024/01/18 01:07:19;;;;;;;8.90;3.33;;;7.60;99.90;;;;;;5074374;28;20436;-88
2024/01/18 01:09:45;;;;;;;10.77;5.40;;;7.50;99.90;;;;;;5069934;28;20445;-88
2024/01/18 01:12:11;;;;;;;3.53;2.77;;;;;;;;;;5068647;28;20563;-87
2024/01/18 01:14:37;;;;;;;7.73;3.13;;;;;;;;;;5069793;28;20169;-88
2024/01/18 01:17:03;;;;;;;5.20;3.33;;;;;;;;;;5071972;28;20482;-88
2024/01/18 01:19:29;;;;;;;3.45;3.05;;;;;;;;;;5072886;28;20435;-89
2024/01/18 01:21:55;;;;;;;7.03;3.20;;;;;;;;;;5081767;28;20196;-89
2024/01/18 01:24:20;;;;;;;2.57;1.80;;;;;;;;;;5067843;28;20426;-88
2024/01/18 01:26:46;;;;;;;1.63;1.33;;;6.70;99.90;;;;;;5076280;28;20474;-87
2024/01/18 01:29:12;;;;;;;3.20;2.07;;;;;;;;;;5087165;28;20514;-88
2024/01/18 01:31:38;;;;;;;1.50;1.40;;;;;;;;;;5085571;28;20177;-88
2024/01/18 01:34:03;;;;;;;2.70;2.00;;;6.00;99.90;;;;;;5077821;28;20458;-89
2024/01/18 01:36:29;;;;;;;2.80;1.73;;;;;;;;;;5092407;28;20431;-87
2024/01/18 01:38:55;;;;;;;1.37;1.13;;;;;;;;;;5075197;28;20185;-89
2024/01/18 01:41:21;;;;;;;1.23;1.17;;;;;;;;;;5086619;28;20927;-89
2024/01/18 01:44:00;;;;;;;2.90;2.38;;;5.60;99.90;;;;;;5080130;28;20453;-88
2024/01/18 01:46:26;;;;;;;0.85;0.85;;;5.50;99.90;;;;;;5079792;28;20711;-88
2024/01/18 01:49:02;;;;;;;1.83;1.42;;;5.40;99.90;;;;;;5079944;28;20184;-89
2024/01/18 01:51:34;;;;;;;1.00;0.93;;;5.20;99.90;;;;;;5075992;28;20646;-88
2024/01/18 01:54:00;;;;;;;1.70;1.00;;;5.20;99.90;;;;;;5072302;28;20188;-86
2024/01/18 01:56:26;;;;;;;1.90;1.25;;;5.10;99.90;;;;;;5059297;28;20562;-86
2024/01/18 01:58:51;;;;;;;1.80;1.57;;;5.00;99.90;;;;;;5056607;28;20185;-86
2024/01/18 02:01:17;;;;;;;3.53;1.40;;;;;;;;;;5055950;28;20176;-87
2024/01/18 02:03:43;;;;;;;2.25;1.58;;;4.90;99.90;;;;;;5060364;28;20176;-87
2024/01/18 02:06:09;;;;;;;0.77;0.77;;;;;;;;;;5066932;28;20932;-87
2024/01/18 02:08:36;;;;;;;2.88;1.58;;;4.60;99.90;;;;;;5077200;28;20197;-88
2024/01/18 02:11:03;;;;;;;3.33;1.35;;;4.60;99.90;;;;;;5077065;28;20169;-87
2024/01/18 02:13:30;;;;;;;3.20;1.73;;;4.60;99.90;;;;;;5077984;28;20196;-87
2024/01/18 02:15:55;;;;;;;2.80;1.40;;;4.50;99.90;;;;;;5076088;28;20198;-87
2024/01/18 02:18:21;;;;;;;0.90;0.90;;;;;;;;;;5074880;28;20172;-86
2024/01/18 02:20:47;;;;;;;1.23;1.13;;;;;;;;;;5077821;28;20415;-86
2024/01/18 02:23:14;;;;;;;1.30;1.20;;;4.40;99.90;;;;;;5071180;28;20440;-86
2024/01/18 02:25:40;;;;;;;1.00;1.00;;;;;;;;;;5074921;28;20466;-87
2024/01/18 02:28:06;;;;;;;0.90;0.90;;;;;;;;;;5084234;28;20243;-87
2024/01/18 02:30:32;;;;;;;2.00;1.03;;;;;;;;;;5075580;28;20696;-86
2024/01/18 02:32:57;;;;;;;1.60;1.00;;;;;;;;;;5081900;28;20422;-87
2024/01/18 02:35:23;;;;;;;0.90;0.47;;;;;;;;;;5077765;28;20461;-88
2024/01/18 02:37:49;;;;;;;0.80;0.75;;;;;;;;;;5064876;28;20524;-87
2024/01/18 02:40:16;;;;;;;2.92;0.68;;;;;;;;;;5068139;28;20185;-88
2024/01/18 02:42:42;;;;;;;1.08;0.85;;;;;;;;;;5066214;28;20217;-86
2024/01/18 02:45:08;;;;;;;0.60;0.60;;;4.70;99.90;;;;;;5065812;28;20185;-85
2024/01/18 02:47:35;;;;;;;1.55;1.13;;;4.70;99.90;;;;;;5071512;28;20300;-85
2024/01/18 02:50:01;;;;;;;0.70;0.70;;;4.60;99.90;;;;;;5069377;28;20167;-85
2024/01/18 02:52:27;;;;;;;0.77;0.77;;;;;;;;;;5072080;28;20188;-86
2024/01/18 02:54:53;;;;;;;0.70;0.70;;;;;;;;;;5082269;28;20223;-86
2024/01/18 02:57:19;;;;;;;1.33;0.97;;;;;;;;;;5066990;28;20447;-86
2024/01/18 02:59:45;;;;;;;1.03;1.03;;;;;;;;;;5078815;28;20406;-89
2024/01/18 03:02:11;;;;;;;1.00;0.70;;;;;;;;;;5070927;28;20438;-87
2024/01/18 03:04:37;;;;;;;0.73;0.73;;;;;;;;;;5080985;28;20415;-86
2024/01/18 03:07:03;;;;;;;0.80;0.68;;;4.50;99.90;;;;;;5076095;28;20446;-86
2024/01/18 03:09:28;;;;;;;1.13;0.90;;;;;;;;;;5091968;28;20199;-86
2024/01/18 03:11:54;;;;;;;1.60;1.23;;;;;;;;;;5077729;28;20440;-86
2024/01/18 03:14:20;;;;;;;1.33;1.20;;;;;;;;;;5078100;28;20427;-86
2024/01/18 03:16:46;;;;;;;0.97;0.97;;;;;;;;;;5072061;28;20460;-86
2024/01/18 03:19:13;;;;;;;1.47;1.37;;;;;;;;;;5072531;28;20525;-87
2024/01/18 03:21:39;;;;;;;0.93;0.82;;;4.40;99.90;;;;;;5078029;28;20450;-85
2024/01/18 03:24:06;;;;;;;1.27;0.85;;;4.30;99.90;;;;;;5091974;28;20188;-85
2024/01/18 03:26:32;;;;;;;2.97;1.60;;;4.90;99.90;;;;;;5081986;28;20208;-87
2024/01/18 03:28:58;;;;;;;1.50;1.40;;;;;;;;;;5102296;28;20226;-87
2024/01/18 03:31:23;;;;;;;2.60;1.70;;;;;;;;;;5075460;28;20182;-87
2024/01/18 03:33:49;;;;;;;1.90;1.43;;;;;;;;;;5073436;28;20473;-86
2024/01/18 03:36:15;;;;;;;1.13;1.03;;;;;;;;;;5085527;28;20473;-87
2024/01/18 03:38:41;;;;;;;0.87;0.87;;;;;;;;;;5073408;28;21003;-87
2024/01/18 03:41:07;;;;;;;2.20;1.47;;;;;;;;;;5072639;28;20426;-87
2024/01/18 03:43:33;;;;;;;1.20;1.07;;;;;;;;;;5075422;28;20454;-87
2024/01/18 03:45:59;;;;;;;1.20;1.10;;;;;;;;;;5074212;28;21021;-88
2024/01/18 03:48:25;;;;;;;0.87;0.87;;;;;;;;;;5076961;28;20490;-87
2024/01/18 03:50:51;;;;;;;1.67;0.90;;;;;;;;;;5071349;28;20406;-88
2024/01/18 03:53:18;;;;;;;0.80;0.80;;;;;;;;;;5070733;28;20447;-87
2024/01/18 03:55:43;;;;;;;0.90;0.70;;;3.40;99.90;;;;;;5067198;28;20427;-88
2024/01/18 03:58:09;;;;;;;1.00;0.97;;;;;;;;;;5083227;28;20748;-89
2024/01/18 04:00:38;;;;;;;1.30;1.20;;;;;;;;;;5076324;28;20189;-88
2024/01/18 04:03:04;;;;;;;1.00;1.00;;;3.70;99.90;;;;;;5072079;28;20439;-89
2024/01/18 04:05:30;;;;;;;0.73;0.73;;;;;;;;;;5074079;28;20251;-88
2024/01/18 04:07:55;;;;;;;2.13;1.20;;;3.90;99.90;;;;;;5069999;28;20459;-88
2024/01/18 04:10:21;;;;;;;1.30;1.20;;;;;;;;;;5082920;28;20263;-89
2024/01/18 04:12:47;;;;;;;1.17;1.07;;;;;;;;;;5070565;28;20185;-88
2024/01/18 04:15:13;;;;;;;1.90;1.00;;;;;;;;;;5067708;28;21016;-89
2024/01/18 04:17:39;;;;;;;1.43;1.30;;;;;;;;;;5085685;28;20204;-88
2024/01/18 04:20:06;;;;;;;1.90;1.10;;;3.50;99.90;;;;;;5074487;28;20416;-88
2024/01/18 04:22:32;;;;;;;1.30;0.80;;;3.50;99.90;;;;;;5076449;28;20482;-88
2024/01/18 04:25:00;;;;;;;1.00;0.95;;;3.60;99.90;;;;;;5073976;28;20176;-88
2024/01/18 04:27:27;;;;;;;4.25;1.02;;;3.50;99.90;;;;;;5073078;28;20631;-88
2024/01/18 04:29:53;;;;;;;1.02;1.02;;;;;;;;;;5071542;28;20187;-88
2024/01/18 04:32:19;;;;;;;2.83;0.77;;;;;;;;;;5072158;28;20181;-89
2024/01/18 04:34:45;;;;;;;0.40;0.40;;;;;;;;;;5063929;28;20878;-89
2024/01/18 04:37:11;;;;;;;0.50;0.40;;;;;;;;;;5061736;28;20460;-88
2024/01/18 04:39:37;;;;;;;0.90;0.73;;;;;;;;;;5076028;28;20431;-88
2024/01/18 04:42:03;;;;;;;0.90;0.67;;;;;;;;;;5060177;28;20192;-89
2024/01/18 04:44:29;;;;;;;0.47;0.47;;;;;;;;;;5058903;28;20584;-89
2024/01/18 04:46:55;;;;;;;1.90;0.70;;;2.60;99.90;;;;;;5061046;28;20454;-87
2024/01/18 04:49:20;;;;;;;0.53;0.50;;;2.40;99.90;;;;;;5059975;28;20454;-87
2024/01/18 04:51:46;;;;;;;1.60;1.50;;;2.30;99.90;;;;;;5060967;28;20223;-88
2024/01/18 04:54:12;;;;;;;0.50;0.50;;;;;;;;;;5059615;28;20855;-86
2024/01/18 04:56:37;;;;;;;1.47;0.70;;;2.20;99.90;;;;;;5078045;28;20199;-86
2024/01/18 04:59:03;;;;;;;1.27;1.17;;;;;;;;;;5057635;28;20449;-84
2024/01/18 05:01:29;;;;;;;0.60;0.60;;;2.00;99.90;;;;;;5076506;28;20193;-87
2024/01/18 05:03:55;;;;;;;2.67;1.27;;;;;;;;;;5062099;28;20299;-87
2024/01/18 05:06:21;;;;;;;2.50;0.73;;;2.00;99.90;;;;;;5060766;28;20241;-87
2024/01/18 05:08:47;;;;;;;1.27;1.17;;;2.00;99.90;;;;;;5059593;28;20590;-87
2024/01/18 05:11:12;;;;;;;0.70;0.70;;;2.00;99.90;;;;;;5056227;28;20426;-85
2024/01/18 05:13:38;;;;;;;0.93;0.93;;;;;;;;;;5071304;28;20494;-87
2024/01/18 05:16:04;;;;;;;0.50;0.50;;;;;;;;;;5061225;28;20196;-86
2024/01/18 05:18:30;;;;;;;1.30;1.17;;;;;;;;;;5063546;28;20441;-86
2024/01/18 05:20:56;;;;;;;1.50;1.33;;;1.90;99.90;;;;;;5061694;28;20939;-87
2024/01/18 05:23:22;;;;;;;1.23;0.93;;;;;;;;;;5064348;28;20434;-88
2024/01/18 05:25:47;;;;;;;2.63;1.50;;;1.70;99.90;;;;;;5063176;28;20198;-86
2024/01/18 05:28:13;;;;;;;2.00;1.27;;;1.70;99.90;;;;;;5057142;28;20528;-88
2024/01/18 05:30:39;;;;;;;1.10;0.97;;;;;;;;;;5064203;28;20230;-88
2024/01/18 05:33:05;;;;;;;1.27;1.00;;;;;;;;;;5080091;28;20649;-87
2024/01/18 05:35:30;;;;;;;1.03;1.03;;;1.60;99.90;;;;;;5065727;28;20272;-85
2024/01/18 05:37:56;;;;;;;2.67;2.17;;;;;;;;;;5072291;28;20461;-85
2024/01/18 05:40:22;;;;;;;0.50;0.50;;;1.40;99.90;;;;;;5067102;28;20634;-85
2024/01/18 05:42:48;;;;;;;2.83;0.77;;;1.30;99.90;;;;;;5074932;28;20525;-86
2024/01/18 05:45:13;;;;;;;2.30;0.97;;;1.30;99.90;;;;;;5064960;28;20271;-84
2024/01/18 05:47:39;;;;;;;0.47;0.47;;;1.30;99.90;;;;;;5061732;28;20200;-82
2024/01/18 05:50:06;;;;;;;1.30;0.77;;;1.40;99.90;;;;;;5059308;28;20301;-84
2024/01/18 05:52:31;;;;;;;2.03;1.30;;;1.40;99.90;;;;;;5056695;28;20971;-86
2024/01/18 05:54:58;;;;;;;0.77;0.77;;;1.50;99.90;;;;;;5059521;28;20192;-86
2024/01/18 05:57:25;;;;;;;2.35;0.75;;;1.60;99.90;;;;;;5054441;28;20207;-86
2024/01/18 05:59:51;;;;;;;2.40;1.73;;;1.60;99.90;;;;;;5067645;28;20211;-85
2024/01/18 06:02:17;;;;;;;4.47;1.70;;;;;;;;;;5048597;28;20272;-86
2024/01/18 06:04:43;;;;;;;5.80;1.20;;;1.50;99.90;;;;;;5057131;28;20677;-84
2024/01/18 06:07:08;;;;;;;1.70;1.10;;;1.40;99.90;;;;;;5052763;28;20199;-86
2024/01/18 06:09:34;;;;;;;1.33;1.13;;;1.30;99.90;;;;;;5045747;28;20224;-85
2024/01/18 06:11:59;;;;;;;3.40;1.60;;;1.10;99.90;;;;;;5049409;28;20211;-85
2024/01/18 06:14:25;;;;;;;5.27;2.87;;;1.10;99.90;;;;;;5056744;28;20580;-86
2024/01/18 06:16:50;;;;;;;13.00;4.50;;;1.00;99.90;;;;;;5071389;28;20694;-85
2024/01/18 06:19:16;;;;;;;1.50;0.97;;;1.10;99.90;;;;;;5056404;28;20192;-85
2024/01/18 06:21:41;;;;;;;0.83;0.83;;;1.10;99.90;;;;;;5062057;28;20242;-85
2024/01/18 06:24:07;;;;;;;2.27;2.13;;;1.20;99.90;;;;;;5069072;28;20330;-86
2024/01/18 06:26:33;;;;;;;1.38;1.27;;;1.30;99.90;;;;;;5061751;28;20224;-85
2024/01/18 06:28:58;;;;;;;1.60;1.13;;;1.40;99.90;;;;;;5058739;28;20295;-85
2024/01/18 06:31:26;;;;;;;1.63;1.53;;;1.50;99.90;;;;;;5052606;28;20208;-85
2024/01/18 06:33:53;;;;;;;2.92;1.20;;;1.60;99.90;;;;;;5053795;28;20234;-86
2024/01/18 06:36:18;;;;;;;1.73;1.00;;;1.90;99.90;;;;;;5054838;28;20197;-85
2024/01/18 06:38:45;;;;;;;2.90;2.13;;;;;;;;;;5057180;28;20661;-86
2024/01/18 06:41:11;;;;;;;2.08;1.85;;;2.10;99.90;;;;;;5055622;28;20189;-86
2024/01/18 06:43:37;;;;;;;2.75;1.23;;;2.10;99.90;;;;;;5058521;28;20192;-84
2024/01/18 06:46:03;;;;;;;2.10;1.33;;;2.30;99.90;;;;;;5070976;28;20545;-86
2024/01/18 06:48:29;;;;;;;5.10;2.33;;;;;;;;;;5049633;28;20194;-85
2024/01/18 06:50:54;;;;;;;10.03;1.90;;;2.40;99.90;;;;;;5051942;28;21973;-86
2024/01/18 06:53:20;;;;;;;1.33;1.23;;;;;;;;;;5051057;28;20441;-85
2024/01/18 06:55:45;;;;;;;3.17;1.63;;;2.30;99.90;;;;;;5057178;28;20181;-86
2024/01/18 06:58:11;;;;;;;4.60;1.60;;;;;;;;;;5051563;28;20441;-85
2024/01/18 07:00:37;;;;;;;2.33;1.35;;;;;;;;;;5068426;28;20880;-84
2024/01/18 07:03:04;;;;;;;3.97;1.23;;;2.40;99.90;;;;;;5055499;28;20180;-85
2024/01/18 07:05:30;;;;;;;2.10;1.90;;;2.40;99.90;;;;;;5055455;28;20442;-84
2024/01/18 07:07:55;;;;;;;1.10;1.03;;;2.40;99.90;;;;;;5054842;28;20235;-84
2024/01/18 07:10:21;;;;;;;1.57;0.83;;;2.30;99.90;;;;;;5052306;28;20279;-84
2024/01/18 07:12:47;;;;;;;0.80;0.80;;;2.20;99.90;;;;;;5058647;28;20226;-86
2024/01/18 07:15:13;;;;;;;2.87;1.80;;;2.10;99.90;;;;;;5062155;28;20185;-86
2024/01/18 07:17:38;;;;;;;3.13;1.60;;;2.00;99.90;;;;;;5063561;28;21085;-85
2024/01/18 07:20:05;;;;;;;4.50;1.23;;;2.00;99.90;;;;;;5058059;28;20274;-86
2024/01/18 07:22:30;;;;;;;3.90;1.92;;;1.80;99.90;;;;;;5061826;28;20181;-85
2024/01/18 07:24:56;;;;;;;2.53;2.20;;;1.80;99.90;;;;;;5072944;28;20567;-85
2024/01/18 07:27:22;;;;;;;1.83;1.50;;;1.80;99.90;;;;;;5059624;28;20681;-85
2024/01/18 07:29:49;;;;;;;3.90;1.50;;;1.70;99.90;;;;;;5063137;28;20474;-85
2024/01/18 07:32:15;;;;;;;2.22;1.80;;;1.70;99.90;;;;;;5060254;28;21015;-85
2024/01/18 07:34:40;;;;;;;15.30;1.17;;;1.70;99.90;;;;;;5059445;28;20502;-86
2024/01/18 07:37:08;;;;;;;3.03;2.03;;;1.60;99.90;;;;;;5049135;28;20609;-85
2024/01/18 07:39:33;;;;;;;5.35;2.50;;;1.60;99.90;;;;;;5050544;28;20664;-84
2024/01/18 07:42:00;;;;;;;5.70;2.53;;;1.40;99.90;;;;;;5060022;28;20195;-82
2024/01/18 07:44:27;;;;;;;6.50;3.30;;;1.30;99.90;;;;;;5062250;28;20500;-82
2024/01/18 07:46:53;;;;;;;5.72;2.70;;;1.30;99.90;;;;;;5061127;28;20214;-82
2024/01/18 07:49:20;;;;;;;1.60;1.30;;;;;;;;;;5082213;28;20302;-83
2024/01/18 07:51:46;;;;;;;1.88;1.60;;;1.10;99.90;;;;;;5062537;28;20208;-82
2024/01/18 07:54:11;;;;;;;1.47;1.07;;;1.10;99.90;;;;;;5061815;28;20945;-82
2024/01/18 07:56:37;;;;;;;4.30;2.33;;;1.00;99.90;;;;;;5056999;28;20204;-80
2024/01/18 07:59:02;;;;;;;3.03;2.30;;;1.00;99.90;;;;;;5053550;28;20553;-80
2024/01/18 08:01:28;;;;;;;6.53;1.83;;;1.00;99.90;;;;;;5056107;28;20571;-80
2024/01/18 08:03:53;;;;;;;1.27;1.17;;;1.00;99.90;;;;;;5056561;28;20188;-81
2024/01/18 08:06:19;;;;;;;1.57;1.23;;;1.00;99.90;;;;;;5054590;28;20204;-80
2024/01/18 08:08:44;;;;;;;3.40;2.90;;;1.00;99.90;;;;;;5061014;28;20227;-83
2024/01/18 08:11:12;;;;;;;2.33;2.17;;;1.00;99.90;;;;;;5060648;28;20188;-80
2024/01/18 08:13:37;;;;;;;5.70;2.35;;;1.10;99.90;;;;;;5072415;28;20230;-79
2024/01/18 08:16:03;;;;;;;1.63;1.53;;;1.10;99.90;;;;;;5059691;28;20277;-80
2024/01/18 08:18:29;;;;;;;0.90;0.70;;;1.10;99.90;;;;;;5055408;28;21396;-84
2024/01/18 08:20:54;;;;;;;1.80;0.80;;;1.10;99.90;;;;;;5070332;28;20454;-84
2024/01/18 08:23:22;;;;;;;0.40;0.40;;;1.10;99.90;;;;;;5061562;28;20185;-82
2024/01/18 08:25:47;;;;;;;0.60;0.60;;;1.10;99.90;;;;;;5057762;28;20196;-83
2024/01/18 08:28:13;;;;;;;3.13;0.80;;;1.10;99.90;;;;;;5072066;28;20660;-84
2024/01/18 08:30:39;;;;;;;1.77;0.53;;;1.10;99.90;;;;;;5062927;28;20817;-82
2024/01/18 08:33:05;;;;;;;1.98;1.48;;;1.20;99.90;;;;;;5062141;28;20193;-84
2024/01/18 08:35:30;;;;;;;8.03;0.70;;;1.20;99.90;;;;;;5059445;28;20703;-83
2024/01/18 08:37:56;;;;;;;3.37;1.63;;;1.20;99.90;;;;;;5055573;28;20220;-83
2024/01/18 08:40:22;;;;;;;2.00;0.83;;;;;;;;;;5065806;28;20181;-83
2024/01/18 08:42:47;;;;;;;4.23;1.70;;;1.20;99.90;;;;;;5061286;28;20247;-84
2024/01/18 08:45:13;;;;;;;4.77;2.13;;;1.10;99.90;;;;;;5060765;28;20533;-83
2024/01/18 08:47:39;;;;;;;0.63;0.47;;;1.10;99.90;;;;;;5061095;28;20208;-83
2024/01/18 08:50:06;;;;;;;0.82;0.82;;;1.10;99.90;;;;;;5059617;28;20260;-84
2024/01/18 08:52:31;;;;;;;1.25;0.73;;;1.10;99.90;;;;;;5061479;28;20184;-85
2024/01/18 08:54:57;;;;;;;2.13;0.60;;;1.10;99.90;;;;;;5056780;28;20265;-85
2024/01/18 08:57:22;;;;;;;0.97;0.60;;;1.10;99.90;;;;;;5060355;28;20735;-85
2024/01/18 08:59:48;;;;;;;1.10;1.00;;;1.00;99.90;;;;;;5061065;28;20214;-84
2024/01/18 09:02:14;;;;;;;1.13;0.93;;;1.00;99.90;;;;;;5058420;28;20235;-84
2024/01/18 09:04:40;;;;;;;2.75;0.80;;;0.90;99.90;;;;;;5060125;28;20184;-86
2024/01/18 09:07:05;;;;;;;0.60;0.60;;;1.00;99.90;;;;;;5062672;28;20257;-84
2024/01/18 09:09:31;;;;;;;0.63;0.50;;;1.00;99.90;;;;;;5046510;28;20231;-83
2024/01/18 09:11:57;;;;;;;1.80;1.40;;;1.00;99.90;;;;;;5049238;28;20180;-80
2024/01/18 09:14:23;;;;;;;1.00;1.00;;;1.10;99.90;;;;;;5047056;28;20185;-83
2024/01/18 09:16:49;;;;;;;2.63;1.00;;;1.10;99.90;;;;;;5046848;28;20245;-82
2024/01/18 09:19:14;;;;;;;1.02;0.82;;;1.20;99.90;;;;;;5047898;28;20181;-82
2024/01/18 09:21:44;;;;;;;0.77;0.70;;;1.10;99.90;;;;;;5046653;28;20227;-83
2024/01/18 09:24:10;;;;;;;0.55;0.55;;;1.10;99.90;;;;;;5050255;28;20185;-82
2024/01/18 09:26:36;;;;;;;2.25;0.88;;;1.00;99.90;;;;;;5047661;28;20219;-84
2024/01/18 09:29:02;;;;;;;0.40;0.30;;;0.90;99.90;;;;;;5045432;28;20203;-83
2024/01/18 09:31:28;;;;;;;0.40;0.40;;;1.00;99.90;;;;;;5053152;28;20188;-82
2024/01/18 09:33:53;;;;;;;0.50;0.50;;;1.00;99.90;;;;;;5051995;28;20181;-82
2024/01/18 09:36:19;;;;;;;2.50;1.07;;;1.00;99.90;;;;;;5051252;28;20841;-83
2024/01/18 09:38:46;;;;;;;0.53;0.53;;;1.00;99.90;;;;;;5044491;28;20208;-83
2024/01/18 09:41:14;;;;;;;1.02;0.75;;;1.10;99.90;;;;;;5053533;28;20185;-83
2024/01/18 09:43:42;;;;;;;2.35;1.30;;;1.00;99.90;;;;;;5054563;28;20677;-82
2024/01/18 09:46:09;;;;;;;1.70;1.60;;;1.10;99.90;;;;;;5054054;28;20204;-83
2024/01/18 09:48:36;;;;;;;0.57;0.57;;;1.30;99.90;;;;;;5053177;28;20879;-83
2024/01/18 09:51:04;;;;;;;0.50;0.50;;;1.20;99.90;;;;;;5051161;28;20192;-83
2024/01/18 09:53:30;;;;;;;1.40;1.30;;;1.20;99.90;;;;;;5052233;28;20711;-83
2024/01/18 09:56:00;;;;;;;0.93;0.60;;;1.60;99.90;;;;;;5045343;28;20176;-83
2024/01/18 09:58:26;;;;;;;1.88;1.50;;;1.30;99.90;;;;;;5046951;28;20193;-82
2024/01/18 10:00:57;;;;;;;3.80;1.70;;;1.20;99.90;;;;;;5048673;28;20797;-82
2024/01/18 10:03:23;;;;;;;3.00;0.85;;;1.30;99.90;;;;;;5048338;28;20369;-83
2024/01/18 10:05:49;;;;;;;2.00;1.80;;;1.30;99.90;;;;;;5046047;28;20185;-82
2024/01/18 10:08:15;;;;;;;1.77;1.13;;;;;;;;;;5049206;28;20581;-82
2024/01/18 10:10:42;;;;;;;4.90;1.30;;;1.20;99.90;;;;;;5047996;28;20246;-83
2024/01/18 10:13:11;;;;;;;3.08;1.58;;;1.10;99.90;;;;;;5051357;28;20793;-82
2024/01/18 10:15:37;;;;;;;1.42;0.68;;;;;;;;;;5055542;28;20189;-83
2024/01/18 10:18:05;;;;;;;7.10;2.00;;;0.90;99.90;;;;;;5055119;28;20715;-82
2024/01/18 10:20:31;;;;;;;2.45;2.28;;;0.90;99.90;;;;;;5068606;28;20974;-83
2024/01/18 10:22:57;;;;;;;1.23;1.13;;;;;;;;;;5057148;28;20191;-82
2024/01/18 10:25:25;;;;;;;1.83;1.73;;;;;;;;;;5051126;28;20788;-84
2024/01/18 10:27:55;;;;;;;4.57;1.80;;;0.80;99.90;;;;;;5050611;28;20213;-84
2024/01/18 10:30:21;;;;;;;1.92;1.05;;;0.80;99.90;;;;;;5071595;28;20322;-81
2024/01/18 10:32:47;;;;;;;4.47;1.58;;;0.80;99.90;;;;;;5059453;28;20181;-80
2024/01/18 10:35:21;;;;;;;1.88;1.70;;;0.80;99.90;;;;;;5073302;28;20253;-82
2024/01/18 10:37:48;;;;;;;2.75;1.35;;;0.90;99.90;;;;;;5062999;28;20619;-81
2024/01/18 10:40:18;;;;;;;3.67;1.35;;;0.90;99.90;;;;;;5062355;28;20184;-81
2024/01/18 10:42:45;;;;;;;1.05;0.95;;;0.80;99.90;;;;;;5066045;28;20204;-81
2024/01/18 10:45:11;;;;;;;2.10;1.90;;;0.90;99.90;;;;;;5061208;28;20475;-82
2024/01/18 10:47:37;;;;;;;3.83;2.78;;;0.90;99.90;;;;;;5061979;28;20208;-80
2024/01/18 10:50:05;;;;;;;1.20;1.10;;;0.80;99.90;;;;;;5060847;28;20215;-82
2024/01/18 10:52:32;;;;;;;2.05;1.23;;;1.00;99.90;;;;;;5062194;28;20185;-85
2024/01/18 10:54:58;;;;;;;0.80;0.80;;;0.90;99.90;;;;;;5086824;28;20266;-85
2024/01/18 10:57:24;;;;;;;3.22;1.30;;;0.80;99.90;;;;;;5081789;28;20204;-86
2024/01/18 10:59:52;;;;;;;1.07;1.03;;;;;;;;;;5079828;28;20279;-86
2024/01/18 11:02:18;;;;;;;2.05;1.02;;;0.70;99.90;;;;;;5070294;28;20581;-85
2024/01/18 11:04:44;;;;;;;1.75;1.23;;;;;;;;;;5073112;28;20204;-86
2024/01/18 11:07:10;;;;;;;2.78;1.40;;;0.70;99.90;;;;;;5075486;28;20298;-86
2024/01/18 11:09:37;;;;;;;1.73;1.42;;;0.80;99.90;;;;;;5066460;28;20197;-85
2024/01/18 11:12:03;;;;;;;0.95;0.95;;;;;;;;;;5064702;28;20676;-85
2024/01/18 11:14:30;;;;;;;1.30;0.82;;;0.80;99.90;;;;;;5067125;28;20180;-86
2024/01/18 11:17:06;;;;;;;1.38;0.88;;;0.70;99.90;;;;;;5067015;28;20274;-85
2024/01/18 11:19:44;;;;;;;2.85;1.70;;;0.70;99.90;;;;;;5068996;28;20199;-82
2024/01/18 11:22:21;;;;;;;1.08;0.70;;;0.60;99.90;;;;;;5069872;28;20184;-85
2024/01/18 11:24:46;;;;;;;1.08;1.08;;;0.60;99.90;;;;;;5067842;28;20192;-85
2024/01/18 11:27:22;;;;;;;0.90;0.90;;;0.60;99.90;;;;;;5068618;28;20224;-84
2024/01/18 11:29:49;;;;;;;4.07;1.48;;;0.70;99.90;;;;;;5068334;28;20227;-87
2024/01/18 11:32:15;;;;;;;1.65;1.55;;;0.70;99.90;;;;;;5068965;28;20215;-85
2024/01/18 11:34:42;;;;;;;7.50;1.52;;;0.60;99.90;;;;;;5081841;28;20188;-86
2024/01/18 11:37:15;;;;;;;1.42;1.33;;;0.60;99.90;;;;;;5080168;28;20254;-84
2024/01/18 11:39:49;;;;;;;1.52;1.40;;;0.60;99.90;;;;;;5069177;28;20233;-84
2024/01/18 11:42:24;;;;;;;4.10;1.83;;;0.50;99.90;;;;;;5069979;28;20185;-86
2024/01/18 11:45:03;;;;;;;2.22;1.50;;;0.50;99.90;;;;;;5071241;28;20246;-85
2024/01/18 11:47:30;;;;;;;1.75;1.65;;;0.40;99.90;;;;;;5070257;28;20204;-85
2024/01/18 11:49:56;;;;;;;2.25;1.30;;;0.40;99.90;;;;;;5068659;28;20207;-86
2024/01/18 11:52:23;;;;;;;1.00;1.00;;;;;;;;;;5067407;28;20189;-85
2024/01/18 11:54:55;;;;;;;1.85;1.27;;;0.40;99.90;;;;;;5066533;28;20214;-84
2024/01/18 11:57:21;;;;;;;2.35;1.80;;;;;;;;;;5069760;28;20227;-87
2024/01/18 11:59:47;;;;;;;2.85;2.55;;;;;;;;;;5064826;28;20247;-85
2024/01/18 12:02:14;;;;;;;4.18;2.33;;;;;;;;;;5066601;28;20190;-83
2024/01/18 12:04:39;;;;;;;5.20;2.25;;;0.30;99.90;;;;;;5070005;28;20187;-86
2024/01/18 12:07:07;;;;;;;1.40;0.87;;;0.20;99.90;;;;;;5089854;28;20196;-86
2024/01/18 12:09:33;;;;;;;2.08;1.88;;;0.10;99.90;;;;;;5069269;28;20227;-84
2024/01/18 12:11:59;;;;;;;6.85;2.38;;;;;;;;;;5069573;28;20172;-86
2024/01/18 12:14:26;;;;;;;3.22;1.77;;;;;;;;;;5071535;28;20176;-85
2024/01/18 12:16:52;;;;;;;2.25;1.20;;;0.10;99.90;;;;;;5076920;28;20214;-85
2024/01/18 12:19:36;;;;;;;3.90;1.48;;;0.10;99.90;;;;;;5086571;28;20178;-85
2024/01/18 12:22:06;;;;;;;9.93;2.60;;;0.10;99.90;;;;;;5065431;28;20172;-85
2024/01/18 12:24:32;;;;;;;1.10;1.00;;;0.80;99.90;;;;;;5066064;28;20165;-85
2024/01/18 12:26:58;;;;;;;3.58;2.17;;;0.20;99.90;;;;;;5067924;28;20255;-84
2024/01/18 12:29:24;;;;;;;1.85;1.50;;;;;;;;;;5076503;28;20633;-85
2024/01/18 12:31:50;;;;;;;10.80;2.93;;;;;;;;;;5069004;28;20173;-85
2024/01/18 12:34:19;;;;;;;2.00;1.88;;;0.40;99.90;;;;;;5062852;28;20400;-85
2024/01/18 12:36:46;;;;;;;1.98;1.88;;;;;;;;;;5075912;28;20199;-86
2024/01/18 12:39:12;;;;;;;2.47;2.08;;;;;;;;;;5069687;28;20702;-85
2024/01/18 12:41:37;;;;;;;4.57;2.70;;;0.20;99.90;;;;;;5071866;28;20199;-84
2024/01/18 12:44:07;;;;;;;6.60;3.60;;;0.30;99.90;;;;;;5073721;28;20180;-86
2024/01/18 12:46:38;;;;;;;4.13;3.80;;;0.20;99.90;;;;;;5076864;28;20200;-85
2024/01/18 12:49:04;;;;;;;3.38;3.08;;;;;;;;;;5071090;28;20571;-85
2024/01/18 12:51:31;;;;;;;6.10;2.40;;;0.30;99.90;;;;;;5064596;28;20170;-86
2024/01/18 12:53:57;;;;;;;4.53;2.03;;;0.00;99.90;;;;;;5069001;28;20168;-86
2024/01/18 12:56:23;;;;;;;5.00;2.60;;;;;;;;;;5074129;28;20226;-85
2024/01/18 12:58:49;;;;;;;1.55;1.45;;;-0.10;99.90;;;;;;5077214;28;20198;-86
2024/01/18 13:01:29;;;;;;;6.47;4.00;;;-0.10;99.90;;;;;;5075834;28;20662;-85
2024/01/18 13:04:12;;;;;;;1.45;1.35;;;-0.10;99.90;;;;;;5071210;28;20713;-85
2024/01/18 13:06:38;;;;;;;2.50;1.90;;;;;;;;;;5082388;28;20246;-85
2024/01/18 13:09:05;;;;;;;2.60;1.85;;;-0.10;99.90;;;;;;5068851;28;20260;-85
2024/01/18 13:11:31;;;;;;;6.60;2.50;;;;;;;;;;5073418;28;20234;-85
2024/01/18 13:14:05;;;;;;;2.42;2.28;;;-0.30;99.90;;;;;;5069735;28;20540;-85
2024/01/18 13:16:31;;;;;;;2.75;2.35;;;-0.20;99.90;;;;;;5074219;28;20253;-85
2024/01/18 13:19:03;;;;;;;6.47;2.43;;;-0.20;99.90;;;;;;5093286;28;20180;-85
2024/01/18 13:21:30;;;;;;;11.05;3.97;;;-0.20;99.90;;;;;;5084779;28;20180;-85
2024/01/18 13:23:56;;;;;;;6.00;2.20;;;-0.20;99.90;;;;;;5087497;28;20196;-85
2024/01/18 13:26:22;;;;;;;5.78;4.20;;;-0.30;99.90;;;;;;5084254;28;20212;-85
2024/01/18 13:28:48;;;;;;;3.20;2.33;;;;;;;;;;5069562;28;20499;-85